Terminal Aerodrome Forecast
Issued by NWS

Home | Current Version | Previous Version | Text Only | Print | Product List | Glossary On
Versions: 1 2 3 4 5 6 7 8 9 10 11 12 13 14 15 16 17 18 19 20 21 22 23 24 25 26 27
000
FTUS46 KMTR 292100 AAA
TAFSFO
TAF AMD
KSFO 292100Z 2921/3024 29018G24KT P6SM FEW009
     FM300400 29010KT P6SM FEW010
     FM301000 29005KT P6SM SCT010
     FM301600 31009KT P6SM SCT150=

USA.gov is the U.S. government's official web portal to all federal, state and local government web resources and services.